createdAt,value
2022-12-18T00:02:01.052Z,13.55
2022-12-18T00:04:48.826Z,15.00
2022-12-18T00:07:37.366Z,10.55
2022-12-18T00:10:22.426Z,10.05
2022-12-18T00:12:53.242Z,11.35
2022-12-18T00:15:21.997Z,13.70
2022-12-18T00:17:52.344Z,11.88
2022-12-18T00:20:26.520Z,17.05
2022-12-18T00:23:00.182Z,13.30
2022-12-18T00:25:29.366Z,14.80
2022-12-18T00:27:58.141Z,17.80
2022-12-18T00:30:27.320Z,11.43
2022-12-18T00:33:18.086Z,3.35
2022-12-18T00:36:11.717Z,23.13
2022-12-18T00:39:00.040Z,12.32
2022-12-18T00:42:05.261Z,13.77
2022-12-18T00:44:52.885Z,14.82
2022-12-18T00:47:26.940Z,19.42
2022-12-18T00:50:14.619Z,20.27
2022-12-18T00:53:02.677Z,6.70
2022-12-18T00:55:52.835Z,9.43
2022-12-18T00:58:21.504Z,13.68
2022-12-18T01:00:51.970Z,18.33
2022-12-18T01:03:41.349Z,14.18
2022-12-18T01:06:13.941Z,13.13
2022-12-18T01:08:47.839Z,12.00
2022-12-18T01:11:18.035Z,9.77
2022-12-18T01:13:46.779Z,10.48
2022-12-18T01:16:16.698Z,15.70
2022-12-18T01:18:46.388Z,14.10
2022-12-18T01:21:34.872Z,13.98
2022-12-18T01:24:27.821Z,9.20
2022-12-18T01:27:15.668Z,14.95
2022-12-18T01:30:06.277Z,9.27
2022-12-18T01:32:53.971Z,9.38
2022-12-18T01:38:24.813Z,12.38
2022-12-18T01:41:12.585Z,15.95
2022-12-18T01:44:00.300Z,7.53
2022-12-18T01:46:50.165Z,8.50
2022-12-18T01:49:19.526Z,13.70
2022-12-18T01:51:53.802Z,9.77
2022-12-18T01:54:23.021Z,12.73
2022-12-18T01:57:04.645Z,16.95
2022-12-18T01:59:46.362Z,14.18
2022-12-18T02:02:31.002Z,8.25
2022-12-18T02:05:20.955Z,15.88
2022-12-18T02:08:07.260Z,14.60
2022-12-18T02:11:06.544Z,7.00
2022-12-18T02:13:56.847Z,13.55
2022-12-18T02:16:48.884Z,17.67
2022-12-18T02:19:36.453Z,13.00
2022-12-18T02:22:14.428Z,17.48
2022-12-18T02:24:52.187Z,12.30
2022-12-18T02:27:21.155Z,9.20
2022-12-18T02:29:57.984Z,11.77
2022-12-18T02:32:38.559Z,15.75
2022-12-18T02:35:08.310Z,11.50
2022-12-18T02:37:41.173Z,13.05
2022-12-18T02:40:10.395Z,16.75
2022-12-18T02:42:41.416Z,13.15
2022-12-18T02:45:14.400Z,9.63
2022-12-18T02:47:47.981Z,12.60
2022-12-18T02:50:19.748Z,8.25
2022-12-18T02:52:55.080Z,12.77
2022-12-18T02:55:42.546Z,10.65
2022-12-18T02:58:26.726Z,12.57
2022-12-18T03:00:58.507Z,12.30
2022-12-18T03:03:37.906Z,9.15
2022-12-18T03:06:10.709Z,15.57
2022-12-18T03:08:44.695Z,18.08
2022-12-18T03:11:14.248Z,11.38
2022-12-18T03:13:54.633Z,11.75
2022-12-18T03:16:36.634Z,8.68
2022-12-18T03:19:23.653Z,8.93
2022-12-18T03:21:59.008Z,9.10
2022-12-18T03:24:41.065Z,10.30
2022-12-18T03:27:15.933Z,12.32
2022-12-18T03:30:08.399Z,16.35
2022-12-18T03:33:00.274Z,12.30
2022-12-18T03:35:34.401Z,12.80
2022-12-18T03:38:20.630Z,13.02
2022-12-18T03:40:52.946Z,16.02
2022-12-18T03:43:28.553Z,14.05
2022-12-18T03:46:05.162Z,12.68
2022-12-18T03:48:50.153Z,11.77
2022-12-18T03:51:39.575Z,10.85
2022-12-18T03:54:12.075Z,10.82
2022-12-18T03:56:53.125Z,11.55
2022-12-18T03:59:24.261Z,10.73
2022-12-18T04:01:54.309Z,12.63
2022-12-18T04:04:25.335Z,8.40
2022-12-18T04:06:57.293Z,12.48
2022-12-18T04:09:27.770Z,10.95
2022-12-18T04:11:56.472Z,8.00
2022-12-18T04:14:25.677Z,9.90
2022-12-18T04:17:01.922Z,13.40
2022-12-18T04:19:53.411Z,8.18
2022-12-18T04:22:24.674Z,14.60
2022-12-18T04:24:59.317Z,13.70
2022-12-18T04:27:38.154Z,8.50
2022-12-18T04:33:12.726Z,15.15
2022-12-18T04:36:00.521Z,10.88
2022-12-18T04:38:47.613Z,12.50
2022-12-18T04:41:19.209Z,7.40
2022-12-18T04:43:51.404Z,7.03
2022-12-18T04:46:19.757Z,7.47
2022-12-18T04:48:50.771Z,9.93
2022-12-18T04:51:26.335Z,12.40
2022-12-18T04:54:14.533Z,7.07
2022-12-18T04:57:02.223Z,7.15
2022-12-18T04:59:45.246Z,6.97
2022-12-18T05:02:18.288Z,10.13
2022-12-18T05:05:01.578Z,8.13
2022-12-18T05:07:49.240Z,8.05
2022-12-18T05:10:39.083Z,9.40
2022-12-18T05:13:26.676Z,10.45
2022-12-18T05:15:57.200Z,7.43
2022-12-18T05:18:44.903Z,6.63
2022-12-18T05:21:25.292Z,6.13
2022-12-18T05:24:10.288Z,8.38
2022-12-18T05:26:39.736Z,9.10
2022-12-18T05:29:13.145Z,5.10
2022-12-18T05:31:44.453Z,4.80
2022-12-18T05:34:13.657Z,8.18
2022-12-18T05:36:42.838Z,5.90
2022-12-18T05:39:11.768Z,8.30
2022-12-18T05:41:41.206Z,4.95
2022-12-18T05:44:13.106Z,4.30
2022-12-18T05:46:41.399Z,5.82
2022-12-18T05:49:13.006Z,3.65
2022-12-18T05:51:41.800Z,9.40
2022-12-18T05:54:14.381Z,9.75
2022-12-18T05:56:48.481Z,9.13
2022-12-18T05:59:18.628Z,7.10
2022-12-18T06:01:52.549Z,7.30
2022-12-18T06:04:21.029Z,7.28
2022-12-18T06:06:49.881Z,7.07
2022-12-18T06:09:20.631Z,7.35
2022-12-18T06:12:08.460Z,6.07
2022-12-18T06:14:56.057Z,7.35
2022-12-18T06:17:43.644Z,6.72
2022-12-18T06:20:34.124Z,6.70
2022-12-18T06:23:20.652Z,9.27
2022-12-18T06:26:15.767Z,5.35
2022-12-18T06:29:05.621Z,6.68
2022-12-18T06:31:55.800Z,9.27
2022-12-18T06:34:44.209Z,7.40
2022-12-18T06:37:34.394Z,7.20
2022-12-18T06:40:21.950Z,6.70
2022-12-18T06:42:55.836Z,7.80
2022-12-18T06:45:27.996Z,6.07
2022-12-18T06:47:58.833Z,6.68
2022-12-18T06:50:31.669Z,8.80
2022-12-18T06:53:19.748Z,8.68
2022-12-18T06:56:10.732Z,6.75
2022-12-18T06:59:01.021Z,5.93
2022-12-18T07:01:48.744Z,4.47
2022-12-18T07:04:33.341Z,7.53
2022-12-18T07:07:21.104Z,4.50
2022-12-18T07:10:08.805Z,6.00
2022-12-18T07:12:54.490Z,7.13
2022-12-18T07:15:24.046Z,6.25
2022-12-18T07:17:56.906Z,6.95
2022-12-18T07:20:30.411Z,10.25
2022-12-18T07:22:59.732Z,7.63
2022-12-18T07:25:47.038Z,10.13
2022-12-18T07:28:34.010Z,7.47
2022-12-18T07:31:22.766Z,5.60
2022-12-18T07:34:13.740Z,5.88
2022-12-18T07:36:42.681Z,8.95
2022-12-18T07:39:14.598Z,4.90
2022-12-18T07:42:07.699Z,7.93
2022-12-18T07:44:36.731Z,8.43
2022-12-18T07:47:20.887Z,6.35
2022-12-18T07:50:05.551Z,5.82
2022-12-18T07:52:53.102Z,5.15
2022-12-18T07:55:54.703Z,7.95
2022-12-18T07:58:25.839Z,0.95
2022-12-18T08:00:54.993Z,7.13
2022-12-18T08:03:35.089Z,5.60
2022-12-18T08:06:04.672Z,8.07
2022-12-18T08:08:33.692Z,7.93
2022-12-18T08:11:04.534Z,8.98
2022-12-18T08:13:36.079Z,7.47
2022-12-18T08:16:08.243Z,10.15
2022-12-18T08:18:39.258Z,7.70
2022-12-18T08:21:30.142Z,9.88
2022-12-18T08:24:17.760Z,6.05
2022-12-18T08:30:09.293Z,5.88
2022-12-18T08:32:56.919Z,2.30
2022-12-18T08:35:29.560Z,9.95
2022-12-18T08:38:02.434Z,9.27
2022-12-18T08:40:33.298Z,8.20
2022-12-18T08:43:19.424Z,6.20
2022-12-18T08:45:48.019Z,9.30
2022-12-18T08:48:21.974Z,6.60
2022-12-18T08:51:01.670Z,9.60
2022-12-18T08:53:36.140Z,12.73
2022-12-18T08:56:07.266Z,5.28
2022-12-18T08:58:37.250Z,7.85
2022-12-18T09:01:25.174Z,7.20
2022-12-18T09:04:13.355Z,8.73
2022-12-18T09:07:00.975Z,5.07
2022-12-18T09:09:48.607Z,6.13
2022-12-18T09:12:36.261Z,9.07
2022-12-18T09:15:04.877Z,6.68
2022-12-18T09:17:35.531Z,7.90
2022-12-18T09:20:07.343Z,8.07
2022-12-18T09:22:39.586Z,9.55
2022-12-18T09:25:08.930Z,11.23
2022-12-18T09:27:40.271Z,10.38
2022-12-18T09:30:09.931Z,9.70
2022-12-18T09:32:59.990Z,8.75
2022-12-18T09:35:29.801Z,8.90
2022-12-18T09:37:58.206Z,5.70
2022-12-18T09:40:33.491Z,7.80
2022-12-18T09:43:35.100Z,11.52
2022-12-18T09:46:06.962Z,8.20
2022-12-18T09:48:40.727Z,7.13
2022-12-18T09:51:29.636Z,7.53
2022-12-18T09:54:05.174Z,11.25
2022-12-18T09:56:37.675Z,9.68
2022-12-18T09:59:07.267Z,8.07
2022-12-18T10:01:44.026Z,10.27
2022-12-18T10:04:33.454Z,5.82
2022-12-18T10:07:45.675Z,8.90
2022-12-18T10:10:14.772Z,7.05
2022-12-18T10:13:07.584Z,9.67
2022-12-18T10:15:40.567Z,7.47
2022-12-18T10:18:24.368Z,7.63
2022-12-18T10:21:02.078Z,3.92
2022-12-18T10:23:43.589Z,8.98
2022-12-18T10:26:14.809Z,10.35
2022-12-18T10:28:43.773Z,7.22
2022-12-18T10:31:19.240Z,7.57
2022-12-18T10:33:48.037Z,7.30
2022-12-18T10:36:17.209Z,8.20
2022-12-18T10:38:49.173Z,9.00
2022-12-18T10:41:26.686Z,8.52
2022-12-18T10:44:12.762Z,8.27
2022-12-18T10:47:08.749Z,7.35
2022-12-18T10:49:42.929Z,11.07
2022-12-18T10:52:19.442Z,13.45
2022-12-18T10:54:56.739Z,13.35
2022-12-18T10:57:39.581Z,16.48
2022-12-18T11:00:31.836Z,9.35
2022-12-18T11:03:31.292Z,9.63
2022-12-18T11:06:22.674Z,15.52
2022-12-18T11:08:59.910Z,8.82
2022-12-18T11:11:28.321Z,11.80
2022-12-18T11:14:06.889Z,11.88
2022-12-18T11:16:39.318Z,10.65
2022-12-18T11:19:30.233Z,6.53
2022-12-18T11:21:59.811Z,11.52
2022-12-18T11:24:30.834Z,12.25
2022-12-18T11:27:04.907Z,8.32
2022-12-18T11:29:52.786Z,7.13
2022-12-18T11:32:47.124Z,10.35
2022-12-18T11:35:39.168Z,11.45
2022-12-18T11:38:27.091Z,11.00
2022-12-18T11:41:09.319Z,9.38
2022-12-18T11:43:40.931Z,10.80
2022-12-18T11:46:19.174Z,8.75
2022-12-18T11:49:03.431Z,13.27
2022-12-18T11:51:45.631Z,16.08
2022-12-18T11:54:15.530Z,10.23
2022-12-18T11:56:52.886Z,9.10
2022-12-18T11:59:32.533Z,16.67
2022-12-18T12:02:19.780Z,10.93
2022-12-18T12:04:57.208Z,12.20
2022-12-18T12:07:45.377Z,9.50
2022-12-18T12:10:39.551Z,5.65
2022-12-18T12:13:20.079Z,12.23
2022-12-18T12:16:01.300Z,14.63
2022-12-18T12:18:30.024Z,13.02
2022-12-18T12:21:05.893Z,6.50
2022-12-18T12:23:46.924Z,8.27
2022-12-18T12:26:21.023Z,14.23
2022-12-18T12:28:53.447Z,12.95
2022-12-18T12:31:42.355Z,11.75
2022-12-18T12:34:19.493Z,11.90
2022-12-18T12:36:52.866Z,10.20
2022-12-18T12:39:24.537Z,12.02
2022-12-18T12:42:09.613Z,9.93
2022-12-18T12:44:54.228Z,12.35
2022-12-18T12:47:36.301Z,4.97
2022-12-18T12:50:18.668Z,10.75
2022-12-18T12:53:08.007Z,8.73
2022-12-18T12:55:49.335Z,15.02
2022-12-18T12:58:46.414Z,12.48
2022-12-18T13:01:33.424Z,14.95
2022-12-18T13:04:30.619Z,13.98
2022-12-18T13:07:18.310Z,14.55
2022-12-18T13:10:05.505Z,12.18
2022-12-18T13:12:53.683Z,11.65
2022-12-18T13:15:42.560Z,21.85
2022-12-18T13:18:30.067Z,21.20
2022-12-18T13:21:10.120Z,10.65
2022-12-18T13:23:49.204Z,14.75
2022-12-18T13:26:34.004Z,7.28
2022-12-18T13:29:02.962Z,15.93
2022-12-18T13:31:31.906Z,16.83
2022-12-18T13:34:31.168Z,18.15
2022-12-18T13:37:19.770Z,16.65
2022-12-18T13:39:48.194Z,16.60
2022-12-18T13:42:30.630Z,14.52
2022-12-18T13:44:59.816Z,10.00
2022-12-18T13:47:36.771Z,22.95
2022-12-18T13:50:20.207Z,13.00
2022-12-18T13:52:52.482Z,20.27
2022-12-18T13:55:21.618Z,20.63
2022-12-18T13:58:04.787Z,18.33
2022-12-18T14:00:52.571Z,13.07
2022-12-18T14:03:43.339Z,15.80
2022-12-18T14:06:33.771Z,20.15
2022-12-18T14:09:21.401Z,18.58
2022-12-18T14:12:34.267Z,25.33
2022-12-18T14:15:28.081Z,13.05
2022-12-18T14:18:18.747Z,31.13
2022-12-18T14:21:08.923Z,21.17
2022-12-18T14:23:43.793Z,22.45
2022-12-18T14:26:23.570Z,21.92
2022-12-18T14:28:52.258Z,19.58
2022-12-18T14:31:22.993Z,11.52
2022-12-18T14:33:51.660Z,24.63
2022-12-18T14:36:23.374Z,19.98
2022-12-18T14:38:56.409Z,19.13
2022-12-18T14:41:26.598Z,15.63
2022-12-18T14:44:08.135Z,20.73
2022-12-18T14:46:52.422Z,19.17
2022-12-18T14:49:43.562Z,15.15
2022-12-18T14:52:36.023Z,17.67
2022-12-18T14:55:29.245Z,29.73
2022-12-18T14:58:15.932Z,17.92
2022-12-18T15:01:03.710Z,28.50
2022-12-18T15:03:52.503Z,15.90
2022-12-18T15:06:40.867Z,27.15
2022-12-18T15:09:24.891Z,27.17
2022-12-18T15:12:00.505Z,17.90
2022-12-18T15:14:31.956Z,19.23
2022-12-18T15:17:01.561Z,20.27
2022-12-18T15:19:43.124Z,25.43
2022-12-18T15:22:31.103Z,13.18
2022-12-18T15:25:00.717Z,21.13
2022-12-18T15:27:49.150Z,18.95
2022-12-18T15:30:36.381Z,23.45
2022-12-18T15:33:32.569Z,15.23
2022-12-18T15:36:15.953Z,26.20
2022-12-18T15:38:50.445Z,23.77
2022-12-18T15:41:24.539Z,16.60
2022-12-18T15:43:53.310Z,24.77
2022-12-18T15:46:26.318Z,36.17
2022-12-18T15:49:11.186Z,19.25
2022-12-18T15:51:58.490Z,20.52
2022-12-18T15:55:03.770Z,25.95
2022-12-18T15:57:54.044Z,30.17
2022-12-18T16:00:40.902Z,23.42
2022-12-18T16:03:28.778Z,27.67
2022-12-18T16:06:16.539Z,27.45
2022-12-18T16:09:07.110Z,26.10
2022-12-18T16:11:41.806Z,28.52
2022-12-18T16:14:32.356Z,22.63
2022-12-18T16:17:02.500Z,17.42
2022-12-18T16:19:32.124Z,20.05
2022-12-18T16:22:26.435Z,28.98
2022-12-18T16:25:19.600Z,21.27
2022-12-18T16:28:09.567Z,22.03
2022-12-18T16:30:57.241Z,31.20
2022-12-18T16:33:45.204Z,30.58
2022-12-18T16:36:32.961Z,25.45
2022-12-18T16:39:20.981Z,21.38
2022-12-18T16:42:13.503Z,21.80
2022-12-18T16:44:53.541Z,28.67
2022-12-18T16:47:41.720Z,34.53
2022-12-18T16:50:19.094Z,37.38
2022-12-18T16:53:06.717Z,38.90
2022-12-18T16:55:36.181Z,28.65
2022-12-18T16:58:07.958Z,33.30
2022-12-18T17:00:36.370Z,28.13
2022-12-18T17:03:26.662Z,31.92
2022-12-18T17:06:16.842Z,35.25
2022-12-18T17:09:07.518Z,34.42
2022-12-18T17:11:55.322Z,36.35
2022-12-18T17:14:42.937Z,30.20
2022-12-18T17:17:27.180Z,28.45
2022-12-18T17:19:55.780Z,39.67
2022-12-18T17:22:24.141Z,26.27
2022-12-18T17:24:54.029Z,25.88
2022-12-18T17:27:41.733Z,40.70
2022-12-18T17:30:30.560Z,24.88
2022-12-18T17:33:11.377Z,31.83
2022-12-18T17:35:59.604Z,35.05
2022-12-18T17:38:29.119Z,41.67
2022-12-18T17:41:03.750Z,29.10
2022-12-18T17:43:35.510Z,20.35
2022-12-18T17:46:13.820Z,40.42
2022-12-18T17:48:44.972Z,32.92
2022-12-18T17:51:14.624Z,29.83
2022-12-18T17:53:44.414Z,37.40
2022-12-18T17:56:15.145Z,26.15
2022-12-18T17:58:44.030Z,24.90
2022-12-18T18:01:31.992Z,30.15
2022-12-18T18:04:22.585Z,37.58
2022-12-18T18:07:10.409Z,29.83
2022-12-18T18:09:52.966Z,30.48
2022-12-18T18:13:00.771Z,45.53
2022-12-18T18:15:56.104Z,40.00
2022-12-18T18:18:43.691Z,36.67
2022-12-18T18:21:20.555Z,41.40
2022-12-18T18:23:51.050Z,27.27
2022-12-18T18:26:22.258Z,43.30
2022-12-18T18:28:56.575Z,33.15
2022-12-18T18:31:29.421Z,41.45
2022-12-18T18:34:18.754Z,26.02
2022-12-18T18:37:06.946Z,27.02
2022-12-18T18:39:56.217Z,30.80
2022-12-18T18:42:43.864Z,39.70
2022-12-18T18:45:15.630Z,45.78
2022-12-18T18:47:50.046Z,21.52
2022-12-18T18:50:22.447Z,40.40
2022-12-18T18:53:00.697Z,31.50
2022-12-18T18:56:03.992Z,43.15
2022-12-18T18:58:56.615Z,34.72
2022-12-18T19:01:44.745Z,40.92
2022-12-18T19:04:33.553Z,28.70
2022-12-18T19:07:30.894Z,21.63
2022-12-18T19:10:21.458Z,45.38
2022-12-18T19:13:24.399Z,38.30
2022-12-18T19:16:12.060Z,28.75
2022-12-18T19:18:41.668Z,33.88
2022-12-18T19:21:14.758Z,45.00
2022-12-18T19:23:47.226Z,32.38
2022-12-18T19:26:27.603Z,29.98
2022-12-18T19:29:16.014Z,28.33
2022-12-18T19:32:03.933Z,24.92
2022-12-18T19:34:51.606Z,37.70
2022-12-18T19:37:35.406Z,26.35
2022-12-18T19:40:20.207Z,42.00
2022-12-18T19:43:07.853Z,32.45
2022-12-18T19:45:56.413Z,42.13
2022-12-18T19:48:45.297Z,18.65
2022-12-18T19:51:19.185Z,38.45
2022-12-18T19:53:54.951Z,54.92
2022-12-18T19:56:27.130Z,44.33
2022-12-18T19:58:56.565Z,51.28
2022-12-18T20:01:47.599Z,29.42
2022-12-18T20:04:35.357Z,37.78
2022-12-18T20:07:16.623Z,41.85
2022-12-18T20:10:08.871Z,27.40
2022-12-18T20:12:56.874Z,40.08
2022-12-18T20:15:45.711Z,34.35
2022-12-18T20:18:33.346Z,33.50
2022-12-18T20:21:21.199Z,38.28
2022-12-18T20:24:09.255Z,40.22
2022-12-18T20:26:56.940Z,31.38
2022-12-18T20:29:44.643Z,40.15
2022-12-18T20:32:36.955Z,36.13
2022-12-18T20:35:12.715Z,52.22
2022-12-18T20:38:03.234Z,37.97
2022-12-18T20:40:52.590Z,32.38
2022-12-18T20:43:43.315Z,27.25
2022-12-18T20:46:16.526Z,27.70
2022-12-18T20:49:06.966Z,31.65
2022-12-18T20:51:56.098Z,35.30
2022-12-18T20:54:40.494Z,35.38
2022-12-18T20:57:11.395Z,52.05
2022-12-18T20:59:47.982Z,50.28
2022-12-18T21:02:20.763Z,50.78
2022-12-18T21:04:50.398Z,39.08
2022-12-18T21:07:24.028Z,32.25
2022-12-18T21:09:52.339Z,56.60
2022-12-18T21:12:58.796Z,31.42
2022-12-18T21:15:33.668Z,43.75
2022-12-18T21:18:16.678Z,30.73
2022-12-18T21:21:06.496Z,39.20
2022-12-18T21:23:55.451Z,37.28
2022-12-18T21:26:45.843Z,44.85
2022-12-18T21:29:17.869Z,27.20
2022-12-18T21:31:54.456Z,43.00
2022-12-18T21:34:26.218Z,51.47
2022-12-18T21:36:55.240Z,30.02
2022-12-18T21:39:38.128Z,45.60
2022-12-18T21:42:58.260Z,44.00
2022-12-18T21:45:45.898Z,42.35
2022-12-18T21:48:38.354Z,26.58
2022-12-18T21:51:25.966Z,47.08
2022-12-18T21:54:13.560Z,28.67
2022-12-18T21:57:05.292Z,50.22
2022-12-18T21:59:55.461Z,35.63
2022-12-18T22:02:24.891Z,34.95
2022-12-18T22:04:53.776Z,54.78
2022-12-18T22:07:22.744Z,56.00
2022-12-18T22:09:51.675Z,49.15
2022-12-18T22:15:14.780Z,42.55
2022-12-18T22:18:09.639Z,38.20
2022-12-18T22:21:04.037Z,52.83
2022-12-18T22:23:58.889Z,39.50
2022-12-18T22:26:47.033Z,38.88
2022-12-18T22:29:52.350Z,47.72
2022-12-18T22:32:31.482Z,41.30
2022-12-18T22:35:07.264Z,33.90
2022-12-18T22:37:43.462Z,42.20
2022-12-18T22:40:31.124Z,36.97
2022-12-18T22:43:18.796Z,35.03
2022-12-18T22:46:06.578Z,42.47
2022-12-18T22:48:56.867Z,39.95
2022-12-18T22:51:45.083Z,54.58
2022-12-18T22:54:32.941Z,36.10
2022-12-18T22:57:20.598Z,50.72
2022-12-18T23:00:08.692Z,16.20
2022-12-18T23:02:48.495Z,35.33
2022-12-18T23:05:19.291Z,35.35
2022-12-18T23:07:47.976Z,51.03
2022-12-18T23:10:16.593Z,51.50
2022-12-18T23:13:04.361Z,38.00
2022-12-18T23:15:52.135Z,43.83
2022-12-18T23:18:42.657Z,43.95
2022-12-18T23:21:30.327Z,37.92
2022-12-18T23:24:18.319Z,60.20
2022-12-18T23:27:09.394Z,47.53
2022-12-18T23:29:59.662Z,52.67
2022-12-18T23:32:49.737Z,48.00
2022-12-18T23:35:37.427Z,53.60
2022-12-18T23:38:24.386Z,30.83
2022-12-18T23:40:56.540Z,48.42
2022-12-18T23:43:42.889Z,55.95
2022-12-18T23:46:24.880Z,31.70
2022-12-18T23:51:55.802Z,32.72
2022-12-18T23:54:32.762Z,46.22
2022-12-18T23:57:02.596Z,59.00
2022-12-18T23:59:33.539Z,22.10
